sensor_id;sensor_type;location;lat;lon;timestamp;P1;durP1;ratioP1;P2;durP2;ratioP2
36213;SDS011;37652;50.400;30.628;2023-01-16T00:01:43;37.37;;;16.80;;
36213;SDS011;37652;50.400;30.628;2023-01-16T00:03:43;33.05;;;14.88;;
36213;SDS011;37652;50.400;30.628;2023-01-16T00:05:44;32.13;;;14.40;;
36213;SDS011;37652;50.400;30.628;2023-01-16T00:07:45;30.17;;;14.63;;
36213;SDS011;37652;50.400;30.628;2023-01-16T00:09:46;29.20;;;13.02;;
36213;SDS011;37652;50.400;30.628;2023-01-16T00:11:47;32.28;;;15.57;;
36213;SDS011;37652;50.400;30.628;2023-01-16T00:13:47;29.10;;;14.02;;
36213;SDS011;37652;50.400;30.628;2023-01-16T00:15:49;33.95;;;15.18;;
36213;SDS011;37652;50.400;30.628;2023-01-16T00:17:50;32.73;;;13.83;;
36213;SDS011;37652;50.400;30.628;2023-01-16T00:19:51;34.67;;;13.63;;
36213;SDS011;37652;50.400;30.628;2023-01-16T00:21:52;31.95;;;15.60;;
36213;SDS011;37652;50.400;30.628;2023-01-16T00:23:53;36.38;;;13.35;;
36213;SDS011;37652;50.400;30.628;2023-01-16T00:25:55;29.03;;;13.27;;
36213;SDS011;37652;50.400;30.628;2023-01-16T00:27:56;39.28;;;13.27;;
36213;SDS011;37652;50.400;30.628;2023-01-16T00:29:56;31.67;;;13.68;;
36213;SDS011;37652;50.400;30.628;2023-01-16T00:31:57;32.38;;;13.98;;
36213;SDS011;37652;50.400;30.628;2023-01-16T00:33:57;35.45;;;14.15;;
36213;SDS011;37652;50.400;30.628;2023-01-16T00:35:59;31.23;;;13.15;;
36213;SDS011;37652;50.400;30.628;2023-01-16T00:40:00;37.90;;;13.80;;
36213;SDS011;37652;50.400;30.628;2023-01-16T00:42:01;36.45;;;15.68;;
36213;SDS011;37652;50.400;30.628;2023-01-16T00:44:02;35.33;;;13.52;;
36213;SDS011;37652;50.400;30.628;2023-01-16T00:46:03;33.38;;;12.77;;
36213;SDS011;37652;50.400;30.628;2023-01-16T00:48:04;33.15;;;15.63;;
36213;SDS011;37652;50.400;30.628;2023-01-16T00:50:05;35.90;;;14.93;;
36213;SDS011;37652;50.400;30.628;2023-01-16T00:54:07;37.60;;;14.07;;
36213;SDS011;37652;50.400;30.628;2023-01-16T00:56:07;28.17;;;10.63;;
36213;SDS011;37652;50.400;30.628;2023-01-16T00:58:09;35.58;;;13.13;;
36213;SDS011;37652;50.400;30.628;2023-01-16T01:00:10;29.47;;;12.30;;
36213;SDS011;37652;50.400;30.628;2023-01-16T01:02:11;29.63;;;12.27;;
36213;SDS011;37652;50.400;30.628;2023-01-16T01:04:12;25.80;;;12.25;;
36213;SDS011;37652;50.400;30.628;2023-01-16T01:06:13;27.70;;;12.40;;
36213;SDS011;37652;50.400;30.628;2023-01-16T01:08:14;25.70;;;12.38;;
36213;SDS011;37652;50.400;30.628;2023-01-16T01:10:14;28.90;;;13.68;;
36213;SDS011;37652;50.400;30.628;2023-01-16T01:12:15;32.38;;;14.25;;
36213;SDS011;37652;50.400;30.628;2023-01-16T01:14:16;28.85;;;10.90;;
36213;SDS011;37652;50.400;30.628;2023-01-16T01:16:16;28.17;;;13.15;;
36213;SDS011;37652;50.400;30.628;2023-01-16T01:18:17;28.20;;;14.00;;
36213;SDS011;37652;50.400;30.628;2023-01-16T01:20:18;30.30;;;12.65;;
36213;SDS011;37652;50.400;30.628;2023-01-16T01:22:19;21.95;;;11.55;;
36213;SDS011;37652;50.400;30.628;2023-01-16T01:24:19;36.00;;;13.70;;
36213;SDS011;37652;50.400;30.628;2023-01-16T01:26:20;24.02;;;11.90;;
36213;SDS011;37652;50.400;30.628;2023-01-16T01:28:21;26.55;;;11.93;;
36213;SDS011;37652;50.400;30.628;2023-01-16T01:30:22;27.42;;;12.30;;
36213;SDS011;37652;50.400;30.628;2023-01-16T01:32:23;29.52;;;12.30;;
36213;SDS011;37652;50.400;30.628;2023-01-16T01:34:23;30.60;;;12.05;;
36213;SDS011;37652;50.400;30.628;2023-01-16T01:36:24;25.85;;;11.75;;
36213;SDS011;37652;50.400;30.628;2023-01-16T01:38:25;28.58;;;11.23;;
36213;SDS011;37652;50.400;30.628;2023-01-16T01:40:25;27.20;;;12.23;;
36213;SDS011;37652;50.400;30.628;2023-01-16T01:42:26;24.85;;;12.38;;
36213;SDS011;37652;50.400;30.628;2023-01-16T01:44:47;25.50;;;12.90;;
36213;SDS011;37652;50.400;30.628;2023-01-16T01:46:51;28.00;;;12.80;;
36213;SDS011;37652;50.400;30.628;2023-01-16T01:49:14;29.27;;;13.60;;
36213;SDS011;37652;50.400;30.628;2023-01-16T01:51:25;29.55;;;13.65;;
36213;SDS011;37652;50.400;30.628;2023-01-16T01:53:31;28.83;;;12.77;;
36213;SDS011;37652;50.400;30.628;2023-01-16T01:55:48;28.90;;;11.97;;
36213;SDS011;37652;50.400;30.628;2023-01-16T01:57:51;26.90;;;11.55;;
36213;SDS011;37652;50.400;30.628;2023-01-16T01:59:58;30.37;;;12.33;;
36213;SDS011;37652;50.400;30.628;2023-01-16T02:02:06;27.83;;;11.67;;
36213;SDS011;37652;50.400;30.628;2023-01-16T02:04:16;23.10;;;11.60;;
36213;SDS011;37652;50.400;30.628;2023-01-16T02:06:25;28.25;;;11.88;;
36213;SDS011;37652;50.400;30.628;2023-01-16T02:08:35;27.70;;;11.77;;
36213;SDS011;37652;50.400;30.628;2023-01-16T02:12:41;27.27;;;13.03;;
36213;SDS011;37652;50.400;30.628;2023-01-16T02:14:43;25.25;;;11.93;;
36213;SDS011;37652;50.400;30.628;2023-01-16T02:16:47;20.70;;;10.13;;
36213;SDS011;37652;50.400;30.628;2023-01-16T02:19:12;26.20;;;11.00;;
36213;SDS011;37652;50.400;30.628;2023-01-16T02:26:23;22.17;;;11.37;;
36213;SDS011;37652;50.400;30.628;2023-01-16T02:31:06;27.47;;;11.10;;
36213;SDS011;37652;50.400;30.628;2023-01-16T02:35:59;24.63;;;11.13;;
36213;SDS011;37652;50.400;30.628;2023-01-16T02:40:43;26.53;;;11.10;;
36213;SDS011;37652;50.400;30.628;2023-01-16T02:50:22;26.75;;;11.50;;
36213;SDS011;37652;50.400;30.628;2023-01-16T02:52:31;28.17;;;11.97;;
36213;SDS011;37652;50.400;30.628;2023-01-16T02:55:04;22.73;;;10.70;;
36213;SDS011;37652;50.400;30.628;2023-01-16T02:57:16;23.70;;;12.13;;
36213;SDS011;37652;50.400;30.628;2023-01-16T02:59:18;25.90;;;11.00;;
36213;SDS011;37652;50.400;30.628;2023-01-16T03:01:19;26.17;;;10.85;;
36213;SDS011;37652;50.400;30.628;2023-01-16T03:05:42;21.55;;;11.30;;
36213;SDS011;37652;50.400;30.628;2023-01-16T03:13:27;20.50;;;10.53;;
36213;SDS011;37652;50.400;30.628;2023-01-16T03:33:07;20.10;;;11.07;;
36213;SDS011;37652;50.400;30.628;2023-01-16T03:35:24;27.83;;;12.52;;
36213;SDS011;37652;50.400;30.628;2023-01-16T03:39:35;25.45;;;12.95;;
36213;SDS011;37652;50.400;30.628;2023-01-16T03:41:41;26.60;;;11.27;;
36213;SDS011;37652;50.400;30.628;2023-01-16T03:43:47;23.93;;;11.53;;
36213;SDS011;37652;50.400;30.628;2023-01-16T03:45:55;24.00;;;11.43;;
36213;SDS011;37652;50.400;30.628;2023-01-16T03:48:24;25.00;;;11.18;;
36213;SDS011;37652;50.400;30.628;2023-01-16T03:51:07;24.45;;;11.32;;
36213;SDS011;37652;50.400;30.628;2023-01-16T03:55:45;22.27;;;11.00;;
36213;SDS011;37652;50.400;30.628;2023-01-16T03:57:45;23.25;;;10.40;;
36213;SDS011;37652;50.400;30.628;2023-01-16T03:59:52;20.77;;;10.40;;
36213;SDS011;37652;50.400;30.628;2023-01-16T04:01:58;20.63;;;11.98;;
36213;SDS011;37652;50.400;30.628;2023-01-16T04:06:50;22.83;;;11.65;;
36213;SDS011;37652;50.400;30.628;2023-01-16T04:09:01;25.20;;;10.97;;
36213;SDS011;37652;50.400;30.628;2023-01-16T04:11:08;19.75;;;10.07;;
36213;SDS011;37652;50.400;30.628;2023-01-16T04:13:10;20.48;;;10.90;;
36213;SDS011;37652;50.400;30.628;2023-01-16T04:15:14;22.83;;;10.88;;
36213;SDS011;37652;50.400;30.628;2023-01-16T04:17:17;19.27;;;10.18;;
36213;SDS011;37652;50.400;30.628;2023-01-16T04:19:18;19.33;;;9.68;;
36213;SDS011;37652;50.400;30.628;2023-01-16T04:21:24;19.27;;;9.98;;
36213;SDS011;37652;50.400;30.628;2023-01-16T04:23:27;18.88;;;9.50;;
36213;SDS011;37652;50.400;30.628;2023-01-16T04:25:27;18.25;;;9.77;;
36213;SDS011;37652;50.400;30.628;2023-01-16T04:27:29;17.55;;;8.90;;
36213;SDS011;37652;50.400;30.628;2023-01-16T04:29:30;17.67;;;10.02;;
36213;SDS011;37652;50.400;30.628;2023-01-16T04:31:30;21.05;;;9.85;;
36213;SDS011;37652;50.400;30.628;2023-01-16T04:33:31;23.88;;;10.43;;
36213;SDS011;37652;50.400;30.628;2023-01-16T04:35:32;20.10;;;9.63;;
36213;SDS011;37652;50.400;30.628;2023-01-16T04:37:33;21.20;;;8.90;;
36213;SDS011;37652;50.400;30.628;2023-01-16T04:39:34;21.00;;;10.13;;
36213;SDS011;37652;50.400;30.628;2023-01-16T04:41:35;18.13;;;9.30;;
36213;SDS011;37652;50.400;30.628;2023-01-16T04:43:35;14.27;;;8.73;;
36213;SDS011;37652;50.400;30.628;2023-01-16T04:45:36;14.38;;;8.82;;
36213;SDS011;37652;50.400;30.628;2023-01-16T04:47:39;20.43;;;9.60;;
36213;SDS011;37652;50.400;30.628;2023-01-16T04:49:40;16.80;;;8.63;;
36213;SDS011;37652;50.400;30.628;2023-01-16T04:51:41;14.98;;;8.90;;
36213;SDS011;37652;50.400;30.628;2023-01-16T04:53:42;17.42;;;9.73;;
36213;SDS011;37652;50.400;30.628;2023-01-16T04:55:42;18.27;;;9.75;;
36213;SDS011;37652;50.400;30.628;2023-01-16T04:57:43;16.77;;;8.35;;
36213;SDS011;37652;50.400;30.628;2023-01-16T04:59:44;14.48;;;8.75;;
36213;SDS011;37652;50.400;30.628;2023-01-16T05:01:44;16.48;;;9.35;;
36213;SDS011;37652;50.400;30.628;2023-01-16T05:03:46;19.08;;;10.00;;
36213;SDS011;37652;50.400;30.628;2023-01-16T05:05:46;14.20;;;8.80;;
36213;SDS011;37652;50.400;30.628;2023-01-16T05:07:47;18.83;;;8.90;;
36213;SDS011;37652;50.400;30.628;2023-01-16T05:10:08;15.10;;;8.00;;
36213;SDS011;37652;50.400;30.628;2023-01-16T05:14:10;14.03;;;8.23;;
36213;SDS011;37652;50.400;30.628;2023-01-16T05:16:11;12.90;;;8.13;;
36213;SDS011;37652;50.400;30.628;2023-01-16T05:18:12;14.23;;;7.78;;
36213;SDS011;37652;50.400;30.628;2023-01-16T05:20:13;14.68;;;8.88;;
36213;SDS011;37652;50.400;30.628;2023-01-16T05:22:14;15.35;;;8.30;;
36213;SDS011;37652;50.400;30.628;2023-01-16T05:24:14;16.85;;;8.60;;
36213;SDS011;37652;50.400;30.628;2023-01-16T05:26:15;13.25;;;8.00;;
36213;SDS011;37652;50.400;30.628;2023-01-16T05:28:16;13.70;;;7.97;;
36213;SDS011;37652;50.400;30.628;2023-01-16T05:30:16;17.90;;;8.32;;
36213;SDS011;37652;50.400;30.628;2023-01-16T05:32:17;12.75;;;7.85;;
36213;SDS011;37652;50.400;30.628;2023-01-16T05:34:18;13.75;;;8.05;;
36213;SDS011;37652;50.400;30.628;2023-01-16T05:36:18;15.52;;;8.27;;
36213;SDS011;37652;50.400;30.628;2023-01-16T05:38:19;14.30;;;7.97;;
36213;SDS011;37652;50.400;30.628;2023-01-16T05:40:20;13.82;;;7.43;;
36213;SDS011;37652;50.400;30.628;2023-01-16T05:42:21;11.40;;;7.13;;
36213;SDS011;37652;50.400;30.628;2023-01-16T05:44:23;16.08;;;7.60;;
36213;SDS011;37652;50.400;30.628;2023-01-16T05:46:23;13.65;;;7.75;;
36213;SDS011;37652;50.400;30.628;2023-01-16T05:48:27;14.13;;;7.90;;
36213;SDS011;37652;50.400;30.628;2023-01-16T05:50:28;11.65;;;7.05;;
36213;SDS011;37652;50.400;30.628;2023-01-16T05:52:29;12.93;;;7.20;;
36213;SDS011;37652;50.400;30.628;2023-01-16T05:54:30;13.45;;;7.18;;
36213;SDS011;37652;50.400;30.628;2023-01-16T05:56:30;15.23;;;8.50;;
36213;SDS011;37652;50.400;30.628;2023-01-16T05:58:31;13.80;;;7.90;;
36213;SDS011;37652;50.400;30.628;2023-01-16T06:00:32;15.02;;;7.25;;
36213;SDS011;37652;50.400;30.628;2023-01-16T06:02:32;14.20;;;7.03;;
36213;SDS011;37652;50.400;30.628;2023-01-16T06:04:33;9.70;;;6.70;;
36213;SDS011;37652;50.400;30.628;2023-01-16T06:06:34;13.80;;;7.78;;
36213;SDS011;37652;50.400;30.628;2023-01-16T06:08:37;14.98;;;8.70;;
36213;SDS011;37652;50.400;30.628;2023-01-16T06:10:38;12.40;;;7.63;;
36213;SDS011;37652;50.400;30.628;2023-01-16T06:12:39;10.85;;;6.35;;
36213;SDS011;37652;50.400;30.628;2023-01-16T06:14:39;14.00;;;8.38;;
36213;SDS011;37652;50.400;30.628;2023-01-16T06:16:40;11.65;;;7.63;;
36213;SDS011;37652;50.400;30.628;2023-01-16T06:18:42;15.93;;;8.50;;
36213;SDS011;37652;50.400;30.628;2023-01-16T06:20:42;15.57;;;8.35;;
36213;SDS011;37652;50.400;30.628;2023-01-16T06:22:43;16.90;;;8.95;;
36213;SDS011;37652;50.400;30.628;2023-01-16T06:24:44;18.75;;;9.93;;
36213;SDS011;37652;50.400;30.628;2023-01-16T06:26:45;21.05;;;11.82;;
36213;SDS011;37652;50.400;30.628;2023-01-16T06:28:46;18.77;;;9.70;;
36213;SDS011;37652;50.400;30.628;2023-01-16T06:30:50;19.20;;;10.65;;
36213;SDS011;37652;50.400;30.628;2023-01-16T06:32:52;17.65;;;10.00;;
36213;SDS011;37652;50.400;30.628;2023-01-16T06:34:53;22.35;;;10.20;;
36213;SDS011;37652;50.400;30.628;2023-01-16T06:36:54;18.20;;;10.10;;
36213;SDS011;37652;50.400;30.628;2023-01-16T06:38:55;23.58;;;11.38;;
36213;SDS011;37652;50.400;30.628;2023-01-16T06:40:56;24.38;;;11.80;;
36213;SDS011;37652;50.400;30.628;2023-01-16T06:42:56;25.58;;;10.52;;
36213;SDS011;37652;50.400;30.628;2023-01-16T06:44:57;22.15;;;8.00;;
36213;SDS011;37652;50.400;30.628;2023-01-16T06:46:58;19.92;;;10.23;;
36213;SDS011;37652;50.400;30.628;2023-01-16T06:48:59;20.90;;;9.93;;
36213;SDS011;37652;50.400;30.628;2023-01-16T06:51:00;23.25;;;11.23;;
36213;SDS011;37652;50.400;30.628;2023-01-16T06:53:00;23.17;;;10.30;;
36213;SDS011;37652;50.400;30.628;2023-01-16T06:55:01;24.52;;;11.40;;
36213;SDS011;37652;50.400;30.628;2023-01-16T06:57:02;23.63;;;11.50;;
36213;SDS011;37652;50.400;30.628;2023-01-16T06:59:03;15.77;;;8.20;;
36213;SDS011;37652;50.400;30.628;2023-01-16T07:01:04;23.33;;;10.77;;
36213;SDS011;37652;50.400;30.628;2023-01-16T07:03:06;17.05;;;10.50;;
36213;SDS011;37652;50.400;30.628;2023-01-16T07:05:09;18.95;;;10.25;;
36213;SDS011;37652;50.400;30.628;2023-01-16T07:07:10;21.73;;;10.95;;
36213;SDS011;37652;50.400;30.628;2023-01-16T07:09:11;23.65;;;10.90;;
36213;SDS011;37652;50.400;30.628;2023-01-16T07:11:11;19.35;;;10.15;;
36213;SDS011;37652;50.400;30.628;2023-01-16T07:13:12;22.35;;;11.63;;
36213;SDS011;37652;50.400;30.628;2023-01-16T07:15:13;21.85;;;11.75;;
36213;SDS011;37652;50.400;30.628;2023-01-16T07:17:33;21.00;;;10.57;;
36213;SDS011;37652;50.400;30.628;2023-01-16T07:19:52;19.35;;;10.23;;
36213;SDS011;37652;50.400;30.628;2023-01-16T07:22:12;15.95;;;9.63;;
36213;SDS011;37652;50.400;30.628;2023-01-16T07:24:34;12.02;;;7.45;;
36213;SDS011;37652;50.400;30.628;2023-01-16T07:26:37;21.63;;;9.90;;
36213;SDS011;37652;50.400;30.628;2023-01-16T07:28:41;21.20;;;10.05;;
36213;SDS011;37652;50.400;30.628;2023-01-16T07:30:45;16.98;;;9.88;;
36213;SDS011;37652;50.400;30.628;2023-01-16T07:32:46;21.27;;;10.50;;
36213;SDS011;37652;50.400;30.628;2023-01-16T07:34:47;21.05;;;11.02;;
36213;SDS011;37652;50.400;30.628;2023-01-16T07:36:48;15.57;;;7.90;;
36213;SDS011;37652;50.400;30.628;2023-01-16T07:38:49;17.63;;;9.77;;
36213;SDS011;37652;50.400;30.628;2023-01-16T07:40:49;15.70;;;9.73;;
36213;SDS011;37652;50.400;30.628;2023-01-16T07:42:50;16.10;;;9.32;;
36213;SDS011;37652;50.400;30.628;2023-01-16T07:44:52;19.45;;;9.65;;
36213;SDS011;37652;50.400;30.628;2023-01-16T07:46:52;14.95;;;9.13;;
36213;SDS011;37652;50.400;30.628;2023-01-16T07:48:53;20.05;;;11.18;;
36213;SDS011;37652;50.400;30.628;2023-01-16T07:50:55;17.30;;;9.25;;
36213;SDS011;37652;50.400;30.628;2023-01-16T07:52:57;17.77;;;10.02;;
36213;SDS011;37652;50.400;30.628;2023-01-16T07:54:58;14.50;;;8.63;;
36213;SDS011;37652;50.400;30.628;2023-01-16T07:56:59;15.23;;;8.93;;
36213;SDS011;37652;50.400;30.628;2023-01-16T07:58:59;16.20;;;8.60;;
36213;SDS011;37652;50.400;30.628;2023-01-16T08:01:00;20.85;;;9.38;;
36213;SDS011;37652;50.400;30.628;2023-01-16T08:03:00;18.88;;;10.45;;
36213;SDS011;37652;50.400;30.628;2023-01-16T08:05:02;15.70;;;8.23;;
36213;SDS011;37652;50.400;30.628;2023-01-16T08:07:02;16.35;;;9.68;;
36213;SDS011;37652;50.400;30.628;2023-01-16T08:09:03;16.15;;;9.20;;
36213;SDS011;37652;50.400;30.628;2023-01-16T08:11:04;21.45;;;10.15;;
36213;SDS011;37652;50.400;30.628;2023-01-16T08:13:24;18.45;;;9.32;;
36213;SDS011;37652;50.400;30.628;2023-01-16T08:15:25;18.02;;;9.70;;
36213;SDS011;37652;50.400;30.628;2023-01-16T08:17:26;19.52;;;12.07;;
36213;SDS011;37652;50.400;30.628;2023-01-16T08:19:27;22.63;;;11.45;;
36213;SDS011;37652;50.400;30.628;2023-01-16T08:21:27;17.35;;;9.88;;
36213;SDS011;37652;50.400;30.628;2023-01-16T08:23:28;21.35;;;11.50;;
36213;SDS011;37652;50.400;30.628;2023-01-16T08:25:29;22.97;;;10.87;;
36213;SDS011;37652;50.400;30.628;2023-01-16T08:27:29;22.75;;;11.85;;
36213;SDS011;37652;50.400;30.628;2023-01-16T08:29:30;25.95;;;12.15;;
36213;SDS011;37652;50.400;30.628;2023-01-16T08:31:31;25.20;;;13.20;;
36213;SDS011;37652;50.400;30.628;2023-01-16T08:33:32;26.35;;;13.23;;
36213;SDS011;37652;50.400;30.628;2023-01-16T08:35:35;33.95;;;13.55;;
36213;SDS011;37652;50.400;30.628;2023-01-16T08:37:35;24.70;;;12.60;;
36213;SDS011;37652;50.400;30.628;2023-01-16T08:39:36;26.55;;;14.10;;
36213;SDS011;37652;50.400;30.628;2023-01-16T08:41:37;35.40;;;14.48;;
36213;SDS011;37652;50.400;30.628;2023-01-16T08:43:57;27.38;;;14.07;;
36213;SDS011;37652;50.400;30.628;2023-01-16T08:46:17;27.35;;;13.52;;
36213;SDS011;37652;50.400;30.628;2023-01-16T08:48:41;29.58;;;15.80;;
36213;SDS011;37652;50.400;30.628;2023-01-16T08:51:00;30.80;;;15.18;;
36213;SDS011;37652;50.400;30.628;2023-01-16T08:53:19;128.98;;;51.25;;
36213;SDS011;37652;50.400;30.628;2023-01-16T08:55:20;160.85;;;69.68;;
36213;SDS011;37652;50.400;30.628;2023-01-16T08:57:21;230.55;;;108.28;;
36213;SDS011;37652;50.400;30.628;2023-01-16T08:59:21;289.15;;;131.30;;
36213;SDS011;37652;50.400;30.628;2023-01-16T09:01:22;120.13;;;52.97;;
36213;SDS011;37652;50.400;30.628;2023-01-16T09:03:23;132.55;;;60.10;;
36213;SDS011;37652;50.400;30.628;2023-01-16T09:05:24;53.22;;;24.58;;
36213;SDS011;37652;50.400;30.628;2023-01-16T09:07:26;44.95;;;20.25;;
36213;SDS011;37652;50.400;30.628;2023-01-16T09:11:29;25.67;;;12.48;;
36213;SDS011;37652;50.400;30.628;2023-01-16T09:13:49;29.60;;;15.02;;
36213;SDS011;37652;50.400;30.628;2023-01-16T09:15:50;24.95;;;13.73;;
36213;SDS011;37652;50.400;30.628;2023-01-16T09:17:51;26.50;;;13.40;;
36213;SDS011;37652;50.400;30.628;2023-01-16T09:19:52;29.92;;;13.77;;
36213;SDS011;37652;50.400;30.628;2023-01-16T09:21:53;29.10;;;13.20;;
36213;SDS011;37652;50.400;30.628;2023-01-16T09:23:53;22.60;;;12.38;;
36213;SDS011;37652;50.400;30.628;2023-01-16T09:25:54;28.83;;;13.45;;
36213;SDS011;37652;50.400;30.628;2023-01-16T09:27:55;24.75;;;12.70;;
36213;SDS011;37652;50.400;30.628;2023-01-16T09:29:55;30.58;;;13.45;;
36213;SDS011;37652;50.400;30.628;2023-01-16T09:31:56;15.65;;;8.82;;
36213;SDS011;37652;50.400;30.628;2023-01-16T09:35:58;24.73;;;13.03;;
36213;SDS011;37652;50.400;30.628;2023-01-16T09:37:59;26.13;;;13.25;;
36213;SDS011;37652;50.400;30.628;2023-01-16T09:40:00;29.27;;;13.50;;
36213;SDS011;37652;50.400;30.628;2023-01-16T09:44:20;26.35;;;13.90;;
36213;SDS011;37652;50.400;30.628;2023-01-16T09:48:31;24.75;;;13.00;;
36213;SDS011;37652;50.400;30.628;2023-01-16T09:50:39;30.15;;;15.70;;
36213;SDS011;37652;50.400;30.628;2023-01-16T09:52:49;31.60;;;16.60;;
36213;SDS011;37652;50.400;30.628;2023-01-16T09:57:45;26.52;;;13.27;;
36213;SDS011;37652;50.400;30.628;2023-01-16T10:00:06;30.05;;;15.30;;
36213;SDS011;37652;50.400;30.628;2023-01-16T10:02:14;30.13;;;15.20;;
36213;SDS011;37652;50.400;30.628;2023-01-16T10:04:29;31.85;;;14.52;;
36213;SDS011;37652;50.400;30.628;2023-01-16T10:06:32;31.35;;;14.48;;
36213;SDS011;37652;50.400;30.628;2023-01-16T10:09:00;32.90;;;14.73;;
36213;SDS011;37652;50.400;30.628;2023-01-16T10:11:23;35.10;;;16.42;;
36213;SDS011;37652;50.400;30.628;2023-01-16T10:13:35;30.73;;;14.77;;
36213;SDS011;37652;50.400;30.628;2023-01-16T10:25:14;29.80;;;14.43;;
36213;SDS011;37652;50.400;30.628;2023-01-16T10:27:35;29.83;;;15.07;;
36213;SDS011;37652;50.400;30.628;2023-01-16T10:29:56;30.80;;;14.48;;
36213;SDS011;37652;50.400;30.628;2023-01-16T10:34:29;28.67;;;14.57;;
36213;SDS011;37652;50.400;30.628;2023-01-16T10:36:41;33.72;;;15.85;;
36213;SDS011;37652;50.400;30.628;2023-01-16T10:38:48;30.52;;;14.38;;
36213;SDS011;37652;50.400;30.628;2023-01-16T10:40:55;35.40;;;17.48;;
36213;SDS011;37652;50.400;30.628;2023-01-16T10:43:02;42.22;;;20.23;;
36213;SDS011;37652;50.400;30.628;2023-01-16T10:45:30;34.22;;;16.80;;
36213;SDS011;37652;50.400;30.628;2023-01-16T10:47:52;39.88;;;17.25;;
36213;SDS011;37652;50.400;30.628;2023-01-16T10:50:12;32.00;;;16.95;;
36213;SDS011;37652;50.400;30.628;2023-01-16T10:52:14;40.60;;;16.77;;
36213;SDS011;37652;50.400;30.628;2023-01-16T10:54:15;35.78;;;16.42;;
36213;SDS011;37652;50.400;30.628;2023-01-16T10:56:16;46.17;;;17.33;;
36213;SDS011;37652;50.400;30.628;2023-01-16T11:00:30;35.45;;;15.88;;
36213;SDS011;37652;50.400;30.628;2023-01-16T11:02:34;34.00;;;17.23;;
36213;SDS011;37652;50.400;30.628;2023-01-16T11:04:40;42.65;;;19.58;;
36213;SDS011;37652;50.400;30.628;2023-01-16T11:06:41;40.72;;;18.52;;
36213;SDS011;37652;50.400;30.628;2023-01-16T11:08:44;37.63;;;16.70;;
36213;SDS011;37652;50.400;30.628;2023-01-16T11:11:09;36.67;;;17.00;;
36213;SDS011;37652;50.400;30.628;2023-01-16T11:13:31;38.20;;;16.98;;
36213;SDS011;37652;50.400;30.628;2023-01-16T11:16:01;43.78;;;18.33;;
36213;SDS011;37652;50.400;30.628;2023-01-16T11:18:26;41.05;;;17.55;;
36213;SDS011;37652;50.400;30.628;2023-01-16T11:20:31;46.08;;;18.98;;
36213;SDS011;37652;50.400;30.628;2023-01-16T11:22:35;40.17;;;18.75;;
36213;SDS011;37652;50.400;30.628;2023-01-16T11:24:39;49.08;;;19.55;;
36213;SDS011;37652;50.400;30.628;2023-01-16T11:26:41;46.03;;;20.55;;
36213;SDS011;37652;50.400;30.628;2023-01-16T11:28:48;51.72;;;20.00;;
36213;SDS011;37652;50.400;30.628;2023-01-16T11:30:51;61.97;;;22.42;;
36213;SDS011;37652;50.400;30.628;2023-01-16T11:32:54;50.90;;;20.95;;
36213;SDS011;37652;50.400;30.628;2023-01-16T11:34:57;45.15;;;20.35;;
36213;SDS011;37652;50.400;30.628;2023-01-16T11:36:58;52.03;;;21.42;;
36213;SDS011;37652;50.400;30.628;2023-01-16T11:39:04;56.67;;;22.58;;
36213;SDS011;37652;50.400;30.628;2023-01-16T11:41:06;46.72;;;19.20;;
36213;SDS011;37652;50.400;30.628;2023-01-16T11:43:14;47.33;;;19.17;;
36213;SDS011;37652;50.400;30.628;2023-01-16T11:45:37;58.13;;;21.48;;
36213;SDS011;37652;50.400;30.628;2023-01-16T11:48:02;62.22;;;21.35;;
36213;SDS011;37652;50.400;30.628;2023-01-16T11:50:26;42.25;;;18.65;;
36213;SDS011;37652;50.400;30.628;2023-01-16T11:52:36;60.35;;;24.15;;
36213;SDS011;37652;50.400;30.628;2023-01-16T11:54:37;50.70;;;20.75;;
36213;SDS011;37652;50.400;30.628;2023-01-16T12:01:21;52.03;;;22.63;;
36213;SDS011;37652;50.400;30.628;2023-01-16T12:06:19;52.78;;;22.58;;
36213;SDS011;37652;50.400;30.628;2023-01-16T12:08:56;54.92;;;22.77;;
36213;SDS011;37652;50.400;30.628;2023-01-16T12:11:05;61.60;;;22.20;;
36213;SDS011;37652;50.400;30.628;2023-01-16T12:13:08;51.28;;;20.27;;
36213;SDS011;37652;50.400;30.628;2023-01-16T12:17:55;58.88;;;20.08;;
36213;SDS011;37652;50.400;30.628;2023-01-16T12:25:20;50.72;;;21.13;;
36213;SDS011;37652;50.400;30.628;2023-01-16T12:30:02;53.90;;;21.23;;
36213;SDS011;37652;50.400;30.628;2023-01-16T12:34:32;56.05;;;21.88;;
36213;SDS011;37652;50.400;30.628;2023-01-16T12:41:23;50.38;;;20.23;;
36213;SDS011;37652;50.400;30.628;2023-01-16T12:46:08;58.67;;;22.30;;
36213;SDS011;37652;50.400;30.628;2023-01-16T12:48:36;45.92;;;19.65;;
36213;SDS011;37652;50.400;30.628;2023-01-16T12:53:00;63.92;;;21.92;;
36213;SDS011;37652;50.400;30.628;2023-01-16T12:55:15;46.03;;;18.63;;
36213;SDS011;37652;50.400;30.628;2023-01-16T12:59:45;44.53;;;19.60;;
36213;SDS011;37652;50.400;30.628;2023-01-16T13:01:52;43.38;;;19.20;;
36213;SDS011;37652;50.400;30.628;2023-01-16T16:28:42;69.32;;;29.02;;
36213;SDS011;37652;50.400;30.628;2023-01-16T16:30:44;101.07;;;31.75;;
36213;SDS011;37652;50.400;30.628;2023-01-16T16:34:55;89.87;;;29.60;;
36213;SDS011;37652;50.400;30.628;2023-01-16T16:36:57;91.50;;;29.15;;
36213;SDS011;37652;50.400;30.628;2023-01-16T16:38:58;80.53;;;29.63;;
36213;SDS011;37652;50.400;30.628;2023-01-16T16:43:06;75.45;;;29.42;;
36213;SDS011;37652;50.400;30.628;2023-01-16T16:47:42;92.97;;;29.73;;
36213;SDS011;37652;50.400;30.628;2023-01-16T16:49:36;90.38;;;31.45;;
36213;SDS011;37652;50.400;30.628;2023-01-16T16:51:37;115.32;;;33.28;;
36213;SDS011;37652;50.400;30.628;2023-01-16T16:53:43;86.97;;;29.48;;
36213;SDS011;37652;50.400;30.628;2023-01-16T16:55:45;92.68;;;31.17;;
36213;SDS011;37652;50.400;30.628;2023-01-16T16:57:47;97.50;;;29.58;;
36213;SDS011;37652;50.400;30.628;2023-01-16T16:59:48;85.05;;;29.02;;
36213;SDS011;37652;50.400;30.628;2023-01-16T17:03:52;110.38;;;32.40;;
36213;SDS011;37652;50.400;30.628;2023-01-16T17:05:53;105.80;;;33.47;;
36213;SDS011;37652;50.400;30.628;2023-01-16T17:07:55;91.72;;;31.13;;
36213;SDS011;37652;50.400;30.628;2023-01-16T17:09:58;83.03;;;31.42;;
36213;SDS011;37652;50.400;30.628;2023-01-16T17:11:59;92.00;;;31.75;;
36213;SDS011;37652;50.400;30.628;2023-01-16T17:14:11;93.20;;;29.17;;
36213;SDS011;37652;50.400;30.628;2023-01-16T17:18:13;101.70;;;29.93;;
36213;SDS011;37652;50.400;30.628;2023-01-16T17:22:16;95.43;;;31.93;;
36213;SDS011;37652;50.400;30.628;2023-01-16T17:24:18;85.38;;;29.95;;
36213;SDS011;37652;50.400;30.628;2023-01-16T17:26:19;96.28;;;30.95;;
36213;SDS011;37652;50.400;30.628;2023-01-16T17:28:20;93.97;;;30.27;;
36213;SDS011;37652;50.400;30.628;2023-01-16T17:30:22;98.13;;;31.50;;
36213;SDS011;37652;50.400;30.628;2023-01-16T17:32:27;108.70;;;33.70;;
36213;SDS011;37652;50.400;30.628;2023-01-16T17:34:32;94.40;;;31.95;;
36213;SDS011;37652;50.400;30.628;2023-01-16T17:36:33;109.88;;;33.55;;
36213;SDS011;37652;50.400;30.628;2023-01-16T17:38:38;98.63;;;32.60;;